sensor_id;sensor_type;location;lat;lon;timestamp;P1;durP1;ratioP1;P2;durP2;ratioP2
28188;SDS011;15471;51.166;4.470;2023-03-11T00:00:22;0.30;;;0.30;;
28188;SDS011;15471;51.166;4.470;2023-03-11T00:02:50;0.30;;;0.30;;
28188;SDS011;15471;51.166;4.470;2023-03-11T00:05:18;0.30;;;0.30;;
28188;SDS011;15471;51.166;4.470;2023-03-11T00:07:46;0.30;;;0.30;;
28188;SDS011;15471;51.166;4.470;2023-03-11T00:10:17;0.20;;;0.20;;
28188;SDS011;15471;51.166;4.470;2023-03-11T00:12:45;0.30;;;0.30;;
28188;SDS011;15471;51.166;4.470;2023-03-11T00:15:11;0.30;;;0.30;;
28188;SDS011;15471;51.166;4.470;2023-03-11T00:17:38;0.30;;;0.30;;
28188;SDS011;15471;51.166;4.470;2023-03-11T00:20:04;0.30;;;0.30;;
28188;SDS011;15471;51.166;4.470;2023-03-11T00:22:31;0.30;;;0.30;;
28188;SDS011;15471;51.166;4.470;2023-03-11T00:24:57;0.30;;;0.30;;
28188;SDS011;15471;51.166;4.470;2023-03-11T00:27:23;0.30;;;0.30;;
28188;SDS011;15471;51.166;4.470;2023-03-11T00:29:49;0.30;;;0.30;;
28188;SDS011;15471;51.166;4.470;2023-03-11T00:32:15;0.30;;;0.30;;
28188;SDS011;15471;51.166;4.470;2023-03-11T00:34:41;0.25;;;0.25;;
28188;SDS011;15471;51.166;4.470;2023-03-11T00:37:07;0.30;;;0.30;;
28188;SDS011;15471;51.166;4.470;2023-03-11T00:39:33;0.30;;;0.30;;
28188;SDS011;15471;51.166;4.470;2023-03-11T00:41:59;0.30;;;0.30;;
28188;SDS011;15471;51.166;4.470;2023-03-11T00:44:25;0.30;;;0.30;;
28188;SDS011;15471;51.166;4.470;2023-03-11T00:46:51;0.30;;;0.30;;
28188;SDS011;15471;51.166;4.470;2023-03-11T00:49:17;0.30;;;0.30;;
28188;SDS011;15471;51.166;4.470;2023-03-11T00:51:43;0.30;;;0.30;;
28188;SDS011;15471;51.166;4.470;2023-03-11T00:54:09;0.30;;;0.30;;
28188;SDS011;15471;51.166;4.470;2023-03-11T00:56:34;0.30;;;0.30;;
28188;SDS011;15471;51.166;4.470;2023-03-11T00:59:01;0.30;;;0.30;;
28188;SDS011;15471;51.166;4.470;2023-03-11T01:01:27;0.30;;;0.30;;
28188;SDS011;15471;51.166;4.470;2023-03-11T01:03:52;0.30;;;0.30;;
28188;SDS011;15471;51.166;4.470;2023-03-11T01:06:18;0.30;;;0.30;;
28188;SDS011;15471;51.166;4.470;2023-03-11T01:08:44;0.30;;;0.30;;
28188;SDS011;15471;51.166;4.470;2023-03-11T01:11:10;0.30;;;0.30;;
28188;SDS011;15471;51.166;4.470;2023-03-11T01:13:36;0.30;;;0.30;;
28188;SDS011;15471;51.166;4.470;2023-03-11T01:16:04;0.30;;;0.30;;
28188;SDS011;15471;51.166;4.470;2023-03-11T01:18:32;0.30;;;0.30;;
28188;SDS011;15471;51.166;4.470;2023-03-11T01:20:59;0.30;;;0.30;;
28188;SDS011;15471;51.166;4.470;2023-03-11T01:23:25;0.30;;;0.30;;
28188;SDS011;15471;51.166;4.470;2023-03-11T01:25:52;0.30;;;0.30;;
28188;SDS011;15471;51.166;4.470;2023-03-11T01:28:18;0.30;;;0.30;;
28188;SDS011;15471;51.166;4.470;2023-03-11T01:30:44;0.30;;;0.30;;
28188;SDS011;15471;51.166;4.470;2023-03-11T01:33:14;0.30;;;0.30;;
28188;SDS011;15471;51.166;4.470;2023-03-11T01:38:08;0.30;;;0.30;;
28188;SDS011;15471;51.166;4.470;2023-03-11T01:40:39;0.30;;;0.30;;
28188;SDS011;15471;51.166;4.470;2023-03-11T01:46:24;0.20;;;0.20;;
28188;SDS011;15471;51.166;4.470;2023-03-11T01:49:11;0.30;;;0.30;;
28188;SDS011;15471;51.166;4.470;2023-03-11T01:51:40;0.30;;;0.30;;
28188;SDS011;15471;51.166;4.470;2023-03-11T01:57:04;0.30;;;0.30;;
28188;SDS011;15471;51.166;4.470;2023-03-11T01:59:35;0.30;;;0.30;;
28188;SDS011;15471;51.166;4.470;2023-03-11T02:02:07;0.30;;;0.30;;
28188;SDS011;15471;51.166;4.470;2023-03-11T02:04:56;0.30;;;0.30;;
28188;SDS011;15471;51.166;4.470;2023-03-11T02:07:25;0.30;;;0.30;;
28188;SDS011;15471;51.166;4.470;2023-03-11T02:09:51;0.30;;;0.30;;
28188;SDS011;15471;51.166;4.470;2023-03-11T02:12:17;0.30;;;0.30;;
28188;SDS011;15471;51.166;4.470;2023-03-11T02:14:44;0.30;;;0.30;;
28188;SDS011;15471;51.166;4.470;2023-03-11T02:17:13;0.40;;;0.40;;
28188;SDS011;15471;51.166;4.470;2023-03-11T02:19:45;0.30;;;0.30;;
28188;SDS011;15471;51.166;4.470;2023-03-11T02:22:23;0.30;;;0.30;;
28188;SDS011;15471;51.166;4.470;2023-03-11T02:24:54;0.30;;;0.30;;
28188;SDS011;15471;51.166;4.470;2023-03-11T02:27:30;0.30;;;0.30;;
28188;SDS011;15471;51.166;4.470;2023-03-11T02:30:00;0.30;;;0.30;;
28188;SDS011;15471;51.166;4.470;2023-03-11T02:32:30;0.30;;;0.30;;
28188;SDS011;15471;51.166;4.470;2023-03-11T02:34:57;0.30;;;0.30;;
28188;SDS011;15471;51.166;4.470;2023-03-11T02:37:23;0.30;;;0.30;;
28188;SDS011;15471;51.166;4.470;2023-03-11T02:40:19;0.30;;;0.30;;
28188;SDS011;15471;51.166;4.470;2023-03-11T02:42:49;0.30;;;0.30;;
28188;SDS011;15471;51.166;4.470;2023-03-11T02:45:19;0.30;;;0.30;;
28188;SDS011;15471;51.166;4.470;2023-03-11T02:47:48;0.30;;;0.30;;
28188;SDS011;15471;51.166;4.470;2023-03-11T02:50:16;0.30;;;0.30;;
28188;SDS011;15471;51.166;4.470;2023-03-11T02:52:44;0.30;;;0.30;;
28188;SDS011;15471;51.166;4.470;2023-03-11T02:55:12;0.30;;;0.30;;
28188;SDS011;15471;51.166;4.470;2023-03-11T02:57:38;0.30;;;0.30;;
28188;SDS011;15471;51.166;4.470;2023-03-11T03:00:04;0.20;;;0.20;;
28188;SDS011;15471;51.166;4.470;2023-03-11T03:02:40;0.30;;;0.30;;
28188;SDS011;15471;51.166;4.470;2023-03-11T03:05:08;0.30;;;0.30;;
28188;SDS011;15471;51.166;4.470;2023-03-11T03:07:34;0.30;;;0.30;;
28188;SDS011;15471;51.166;4.470;2023-03-11T03:10:01;0.30;;;0.30;;
28188;SDS011;15471;51.166;4.470;2023-03-11T03:12:28;0.30;;;0.30;;
28188;SDS011;15471;51.166;4.470;2023-03-11T03:14:54;0.30;;;0.30;;
28188;SDS011;15471;51.166;4.470;2023-03-11T03:17:22;0.30;;;0.30;;
28188;SDS011;15471;51.166;4.470;2023-03-11T03:19:49;0.30;;;0.30;;
28188;SDS011;15471;51.166;4.470;2023-03-11T03:22:17;0.30;;;0.30;;
28188;SDS011;15471;51.166;4.470;2023-03-11T03:24:45;0.30;;;0.30;;
28188;SDS011;15471;51.166;4.470;2023-03-11T03:27:11;0.30;;;0.30;;
28188;SDS011;15471;51.166;4.470;2023-03-11T03:29:38;0.30;;;0.30;;
28188;SDS011;15471;51.166;4.470;2023-03-11T03:32:04;0.30;;;0.30;;
28188;SDS011;15471;51.166;4.470;2023-03-11T03:34:31;0.30;;;0.30;;
28188;SDS011;15471;51.166;4.470;2023-03-11T03:36:57;0.30;;;0.30;;
28188;SDS011;15471;51.166;4.470;2023-03-11T03:39:22;0.30;;;0.30;;
28188;SDS011;15471;51.166;4.470;2023-03-11T03:41:49;0.30;;;0.30;;
28188;SDS011;15471;51.166;4.470;2023-03-11T03:44:15;0.30;;;0.30;;
28188;SDS011;15471;51.166;4.470;2023-03-11T03:46:43;0.30;;;0.30;;
28188;SDS011;15471;51.166;4.470;2023-03-11T03:49:09;0.30;;;0.30;;
28188;SDS011;15471;51.166;4.470;2023-03-11T03:51:36;0.30;;;0.30;;
28188;SDS011;15471;51.166;4.470;2023-03-11T03:54:19;0.30;;;0.30;;
28188;SDS011;15471;51.166;4.470;2023-03-11T03:56:45;0.30;;;0.30;;
28188;SDS011;15471;51.166;4.470;2023-03-11T03:59:11;0.30;;;0.30;;
28188;SDS011;15471;51.166;4.470;2023-03-11T04:01:44;0.30;;;0.30;;
28188;SDS011;15471;51.166;4.470;2023-03-11T04:04:10;0.30;;;0.30;;
28188;SDS011;15471;51.166;4.470;2023-03-11T04:06:36;0.30;;;0.30;;
28188;SDS011;15471;51.166;4.470;2023-03-11T04:09:05;0.30;;;0.30;;
28188;SDS011;15471;51.166;4.470;2023-03-11T04:11:33;0.30;;;0.30;;
28188;SDS011;15471;51.166;4.470;2023-03-11T04:14:00;0.40;;;0.40;;
28188;SDS011;15471;51.166;4.470;2023-03-11T04:16:27;0.30;;;0.30;;
28188;SDS011;15471;51.166;4.470;2023-03-11T04:19:00;0.30;;;0.30;;
28188;SDS011;15471;51.166;4.470;2023-03-11T04:21:27;0.40;;;0.40;;
28188;SDS011;15471;51.166;4.470;2023-03-11T04:23:53;0.30;;;0.30;;
28188;SDS011;15471;51.166;4.470;2023-03-11T04:26:26;0.40;;;0.40;;
28188;SDS011;15471;51.166;4.470;2023-03-11T04:28:52;0.40;;;0.40;;
28188;SDS011;15471;51.166;4.470;2023-03-11T04:31:18;0.30;;;0.30;;
28188;SDS011;15471;51.166;4.470;2023-03-11T04:33:44;0.40;;;0.40;;
28188;SDS011;15471;51.166;4.470;2023-03-11T04:36:11;0.30;;;0.30;;
28188;SDS011;15471;51.166;4.470;2023-03-11T04:38:37;0.40;;;0.40;;
28188;SDS011;15471;51.166;4.470;2023-03-11T04:41:05;0.40;;;0.40;;
28188;SDS011;15471;51.166;4.470;2023-03-11T04:43:34;0.40;;;0.40;;
28188;SDS011;15471;51.166;4.470;2023-03-11T04:46:00;0.40;;;0.40;;
28188;SDS011;15471;51.166;4.470;2023-03-11T04:48:26;0.40;;;0.40;;
28188;SDS011;15471;51.166;4.470;2023-03-11T04:50:52;0.40;;;0.40;;
28188;SDS011;15471;51.166;4.470;2023-03-11T04:53:20;0.40;;;0.40;;
28188;SDS011;15471;51.166;4.470;2023-03-11T04:55:46;0.30;;;0.30;;
28188;SDS011;15471;51.166;4.470;2023-03-11T04:58:12;0.40;;;0.40;;
28188;SDS011;15471;51.166;4.470;2023-03-11T05:00:39;0.40;;;0.40;;
28188;SDS011;15471;51.166;4.470;2023-03-11T05:03:08;0.40;;;0.40;;
28188;SDS011;15471;51.166;4.470;2023-03-11T05:05:35;0.40;;;0.40;;
28188;SDS011;15471;51.166;4.470;2023-03-11T05:08:01;0.40;;;0.40;;
28188;SDS011;15471;51.166;4.470;2023-03-11T05:10:28;0.40;;;0.40;;
28188;SDS011;15471;51.166;4.470;2023-03-11T05:12:56;0.40;;;0.40;;
28188;SDS011;15471;51.166;4.470;2023-03-11T05:15:27;0.30;;;0.30;;
28188;SDS011;15471;51.166;4.470;2023-03-11T05:17:56;0.40;;;0.40;;
28188;SDS011;15471;51.166;4.470;2023-03-11T05:20:22;0.40;;;0.40;;
28188;SDS011;15471;51.166;4.470;2023-03-11T05:22:48;0.30;;;0.30;;
28188;SDS011;15471;51.166;4.470;2023-03-11T05:25:15;0.40;;;0.40;;
28188;SDS011;15471;51.166;4.470;2023-03-11T05:27:42;0.40;;;0.40;;
28188;SDS011;15471;51.166;4.470;2023-03-11T05:30:08;0.40;;;0.40;;
28188;SDS011;15471;51.166;4.470;2023-03-11T05:32:36;0.40;;;0.40;;
28188;SDS011;15471;51.166;4.470;2023-03-11T05:35:04;0.30;;;0.30;;
28188;SDS011;15471;51.166;4.470;2023-03-11T05:37:31;0.40;;;0.40;;
28188;SDS011;15471;51.166;4.470;2023-03-11T05:39:58;0.40;;;0.40;;
28188;SDS011;15471;51.166;4.470;2023-03-11T05:42:24;0.40;;;0.40;;
28188;SDS011;15471;51.166;4.470;2023-03-11T05:44:52;0.40;;;0.40;;
28188;SDS011;15471;51.166;4.470;2023-03-11T05:47:20;0.30;;;0.30;;
28188;SDS011;15471;51.166;4.470;2023-03-11T05:49:47;0.40;;;0.40;;
28188;SDS011;15471;51.166;4.470;2023-03-11T05:52:15;0.40;;;0.40;;
28188;SDS011;15471;51.166;4.470;2023-03-11T05:54:41;0.40;;;0.40;;
28188;SDS011;15471;51.166;4.470;2023-03-11T05:57:08;0.40;;;0.40;;
28188;SDS011;15471;51.166;4.470;2023-03-11T05:59:34;0.40;;;0.40;;
28188;SDS011;15471;51.166;4.470;2023-03-11T06:02:03;0.40;;;0.40;;
28188;SDS011;15471;51.166;4.470;2023-03-11T06:04:29;0.40;;;0.40;;
28188;SDS011;15471;51.166;4.470;2023-03-11T06:06:57;0.40;;;0.40;;
28188;SDS011;15471;51.166;4.470;2023-03-11T06:09:26;0.40;;;0.40;;
28188;SDS011;15471;51.166;4.470;2023-03-11T06:11:52;0.40;;;0.40;;
28188;SDS011;15471;51.166;4.470;2023-03-11T06:14:21;0.40;;;0.40;;
28188;SDS011;15471;51.166;4.470;2023-03-11T06:16:49;0.40;;;0.40;;
28188;SDS011;15471;51.166;4.470;2023-03-11T06:19:17;0.40;;;0.40;;
28188;SDS011;15471;51.166;4.470;2023-03-11T06:21:47;0.40;;;0.40;;
28188;SDS011;15471;51.166;4.470;2023-03-11T06:24:14;0.40;;;0.40;;
28188;SDS011;15471;51.166;4.470;2023-03-11T06:26:41;0.40;;;0.40;;
28188;SDS011;15471;51.166;4.470;2023-03-11T06:29:11;0.40;;;0.40;;
28188;SDS011;15471;51.166;4.470;2023-03-11T06:31:39;0.40;;;0.40;;
28188;SDS011;15471;51.166;4.470;2023-03-11T06:34:08;0.40;;;0.40;;
28188;SDS011;15471;51.166;4.470;2023-03-11T06:36:36;0.40;;;0.40;;
28188;SDS011;15471;51.166;4.470;2023-03-11T06:39:02;0.40;;;0.40;;
28188;SDS011;15471;51.166;4.470;2023-03-11T06:41:31;0.40;;;0.40;;
28188;SDS011;15471;51.166;4.470;2023-03-11T06:43:58;0.40;;;0.40;;
28188;SDS011;15471;51.166;4.470;2023-03-11T06:46:25;0.40;;;0.40;;
28188;SDS011;15471;51.166;4.470;2023-03-11T06:48:53;0.40;;;0.40;;
28188;SDS011;15471;51.166;4.470;2023-03-11T06:51:20;0.40;;;0.40;;
28188;SDS011;15471;51.166;4.470;2023-03-11T06:53:47;0.40;;;0.40;;
28188;SDS011;15471;51.166;4.470;2023-03-11T06:56:15;0.40;;;0.40;;
28188;SDS011;15471;51.166;4.470;2023-03-11T06:58:46;0.40;;;0.40;;
28188;SDS011;15471;51.166;4.470;2023-03-11T07:03:40;0.40;;;0.40;;
28188;SDS011;15471;51.166;4.470;2023-03-11T07:06:14;0.40;;;0.40;;
28188;SDS011;15471;51.166;4.470;2023-03-11T07:08:42;0.40;;;0.40;;
28188;SDS011;15471;51.166;4.470;2023-03-11T07:11:09;0.40;;;0.40;;
28188;SDS011;15471;51.166;4.470;2023-03-11T07:13:39;0.40;;;0.40;;
28188;SDS011;15471;51.166;4.470;2023-03-11T07:16:06;0.40;;;0.40;;
28188;SDS011;15471;51.166;4.470;2023-03-11T07:18:38;0.40;;;0.40;;
28188;SDS011;15471;51.166;4.470;2023-03-11T07:21:05;0.40;;;0.40;;
28188;SDS011;15471;51.166;4.470;2023-03-11T07:23:32;0.40;;;0.40;;
28188;SDS011;15471;51.166;4.470;2023-03-11T07:26:02;0.38;;;0.38;;
28188;SDS011;15471;51.166;4.470;2023-03-11T07:28:29;0.30;;;0.30;;
28188;SDS011;15471;51.166;4.470;2023-03-11T07:30:55;0.30;;;0.30;;
28188;SDS011;15471;51.166;4.470;2023-03-11T07:33:21;0.30;;;0.30;;
28188;SDS011;15471;51.166;4.470;2023-03-11T07:35:49;0.30;;;0.30;;
28188;SDS011;15471;51.166;4.470;2023-03-11T07:38:15;0.30;;;0.30;;
28188;SDS011;15471;51.166;4.470;2023-03-11T07:40:42;0.30;;;0.30;;
28188;SDS011;15471;51.166;4.470;2023-03-11T07:43:08;0.30;;;0.30;;
28188;SDS011;15471;51.166;4.470;2023-03-11T07:45:34;0.20;;;0.20;;
28188;SDS011;15471;51.166;4.470;2023-03-11T07:48:00;0.30;;;0.30;;
28188;SDS011;15471;51.166;4.470;2023-03-11T07:50:26;0.30;;;0.30;;
28188;SDS011;15471;51.166;4.470;2023-03-11T07:52:52;0.20;;;0.20;;
28188;SDS011;15471;51.166;4.470;2023-03-11T07:55:18;0.30;;;0.30;;
28188;SDS011;15471;51.166;4.470;2023-03-11T07:57:45;0.30;;;0.30;;
28188;SDS011;15471;51.166;4.470;2023-03-11T08:00:13;0.20;;;0.20;;
28188;SDS011;15471;51.166;4.470;2023-03-11T08:02:39;0.30;;;0.30;;
28188;SDS011;15471;51.166;4.470;2023-03-11T08:05:05;0.30;;;0.30;;
28188;SDS011;15471;51.166;4.470;2023-03-11T08:07:34;0.30;;;0.30;;
28188;SDS011;15471;51.166;4.470;2023-03-11T08:10:00;0.30;;;0.30;;
28188;SDS011;15471;51.166;4.470;2023-03-11T08:12:26;0.20;;;0.20;;
28188;SDS011;15471;51.166;4.470;2023-03-11T08:14:52;0.20;;;0.20;;
28188;SDS011;15471;51.166;4.470;2023-03-11T08:17:18;0.20;;;0.20;;
28188;SDS011;15471;51.166;4.470;2023-03-11T08:19:43;0.20;;;0.20;;
28188;SDS011;15471;51.166;4.470;2023-03-11T08:22:09;0.30;;;0.30;;
28188;SDS011;15471;51.166;4.470;2023-03-11T08:24:35;0.20;;;0.20;;
28188;SDS011;15471;51.166;4.470;2023-03-11T08:27:01;0.20;;;0.20;;
28188;SDS011;15471;51.166;4.470;2023-03-11T08:29:29;0.20;;;0.20;;
28188;SDS011;15471;51.166;4.470;2023-03-11T08:31:55;0.20;;;0.20;;
28188;SDS011;15471;51.166;4.470;2023-03-11T08:34:20;0.20;;;0.20;;
28188;SDS011;15471;51.166;4.470;2023-03-11T08:36:46;0.20;;;0.20;;
28188;SDS011;15471;51.166;4.470;2023-03-11T08:39:12;0.20;;;0.20;;
28188;SDS011;15471;51.166;4.470;2023-03-11T08:41:38;0.20;;;0.20;;
28188;SDS011;15471;51.166;4.470;2023-03-11T08:44:04;0.20;;;0.20;;
28188;SDS011;15471;51.166;4.470;2023-03-11T08:46:31;0.20;;;0.20;;
28188;SDS011;15471;51.166;4.470;2023-03-11T08:48:59;0.20;;;0.20;;
28188;SDS011;15471;51.166;4.470;2023-03-11T08:51:27;0.20;;;0.20;;
28188;SDS011;15471;51.166;4.470;2023-03-11T08:53:53;0.10;;;0.10;;
28188;SDS011;15471;51.166;4.470;2023-03-11T08:56:19;0.10;;;0.10;;
28188;SDS011;15471;51.166;4.470;2023-03-11T08:58:46;0.10;;;0.10;;
28188;SDS011;15471;51.166;4.470;2023-03-11T09:01:12;0.00;;;0.00;;
28188;SDS011;15471;51.166;4.470;2023-03-11T09:03:38;0.00;;;0.00;;
28188;SDS011;15471;51.166;4.470;2023-03-11T09:06:05;0.00;;;0.00;;
28188;SDS011;15471;51.166;4.470;2023-03-11T09:08:33;0.00;;;0.00;;
28188;SDS011;15471;51.166;4.470;2023-03-11T09:11:00;0.00;;;0.00;;
28188;SDS011;15471;51.166;4.470;2023-03-11T09:13:26;0.00;;;0.00;;
28188;SDS011;15471;51.166;4.470;2023-03-11T09:15:52;0.00;;;0.00;;
28188;SDS011;15471;51.166;4.470;2023-03-11T09:18:19;0.00;;;0.00;;
28188;SDS011;15471;51.166;4.470;2023-03-11T09:20:45;0.00;;;0.00;;
28188;SDS011;15471;51.166;4.470;2023-03-11T09:23:13;0.00;;;0.00;;
28188;SDS011;15471;51.166;4.470;2023-03-11T09:25:40;0.00;;;0.00;;
28188;SDS011;15471;51.166;4.470;2023-03-11T09:28:06;0.00;;;0.00;;
28188;SDS011;15471;51.166;4.470;2023-03-11T09:30:32;0.00;;;0.00;;
28188;SDS011;15471;51.166;4.470;2023-03-11T09:32:58;0.00;;;0.00;;
28188;SDS011;15471;51.166;4.470;2023-03-11T09:35:23;0.00;;;0.00;;
28188;SDS011;15471;51.166;4.470;2023-03-11T09:37:49;0.00;;;0.00;;
28188;SDS011;15471;51.166;4.470;2023-03-11T09:40:17;0.00;;;0.00;;
28188;SDS011;15471;51.166;4.470;2023-03-11T09:42:49;0.00;;;0.00;;
28188;SDS011;15471;51.166;4.470;2023-03-11T09:45:51;0.00;;;0.00;;
28188;SDS011;15471;51.166;4.470;2023-03-11T09:48:33;0.00;;;0.00;;
28188;SDS011;15471;51.166;4.470;2023-03-11T09:51:14;0.00;;;0.00;;
28188;SDS011;15471;51.166;4.470;2023-03-11T09:53:45;0.00;;;0.00;;
28188;SDS011;15471;51.166;4.470;2023-03-11T09:56:14;0.00;;;0.00;;
28188;SDS011;15471;51.166;4.470;2023-03-11T09:58:51;0.00;;;0.00;;
28188;SDS011;15471;51.166;4.470;2023-03-11T10:01:35;0.00;;;0.00;;
28188;SDS011;15471;51.166;4.470;2023-03-11T10:04:07;0.00;;;0.00;;
28188;SDS011;15471;51.166;4.470;2023-03-11T10:06:38;0.00;;;0.00;;
28188;SDS011;15471;51.166;4.470;2023-03-11T10:09:24;0.00;;;0.00;;
28188;SDS011;15471;51.166;4.470;2023-03-11T10:22:46;0.00;;;0.00;;
28188;SDS011;15471;51.166;4.470;2023-03-11T10:25:27;0.00;;;0.00;;
28188;SDS011;15471;51.166;4.470;2023-03-11T10:28:13;0.00;;;0.00;;
28188;SDS011;15471;51.166;4.470;2023-03-11T10:30:50;0.00;;;0.00;;
28188;SDS011;15471;51.166;4.470;2023-03-11T10:35:59;0.00;;;0.00;;
28188;SDS011;15471;51.166;4.470;2023-03-11T10:38:38;0.00;;;0.00;;
28188;SDS011;15471;51.166;4.470;2023-03-11T10:43:44;0.00;;;0.00;;
28188;SDS011;15471;51.166;4.470;2023-03-11T10:46:27;0.10;;;0.10;;
28188;SDS011;15471;51.166;4.470;2023-03-11T10:48:53;0.00;;;0.00;;
28188;SDS011;15471;51.166;4.470;2023-03-11T10:51:21;0.00;;;0.00;;
28188;SDS011;15471;51.166;4.470;2023-03-11T10:53:55;0.00;;;0.00;;
28188;SDS011;15471;51.166;4.470;2023-03-11T10:59:26;0.00;;;0.00;;
28188;SDS011;15471;51.166;4.470;2023-03-11T11:01:55;0.00;;;0.00;;
28188;SDS011;15471;51.166;4.470;2023-03-11T11:07:34;0.00;;;0.00;;
28188;SDS011;15471;51.166;4.470;2023-03-11T11:13:24;0.00;;;0.00;;
28188;SDS011;15471;51.166;4.470;2023-03-11T11:16:03;0.00;;;0.00;;
28188;SDS011;15471;51.166;4.470;2023-03-11T11:18:44;0.10;;;0.10;;
28188;SDS011;15471;51.166;4.470;2023-03-11T11:21:16;0.00;;;0.00;;
28188;SDS011;15471;51.166;4.470;2023-03-11T11:30:02;0.10;;;0.10;;
28188;SDS011;15471;51.166;4.470;2023-03-11T11:32:32;0.10;;;0.10;;
28188;SDS011;15471;51.166;4.470;2023-03-11T11:34:59;0.00;;;0.00;;
28188;SDS011;15471;51.166;4.470;2023-03-11T11:37:31;0.10;;;0.10;;
28188;SDS011;15471;51.166;4.470;2023-03-11T11:40:04;0.10;;;0.10;;
28188;SDS011;15471;51.166;4.470;2023-03-11T11:43:24;0.10;;;0.10;;
28188;SDS011;15471;51.166;4.470;2023-03-11T11:45:33;0.10;;;0.10;;
28188;SDS011;15471;51.166;4.470;2023-03-11T11:50:36;0.10;;;0.10;;
28188;SDS011;15471;51.166;4.470;2023-03-11T11:56:03;0.10;;;0.10;;
28188;SDS011;15471;51.166;4.470;2023-03-11T11:58:29;0.10;;;0.10;;
28188;SDS011;15471;51.166;4.470;2023-03-11T12:11:54;0.10;;;0.10;;
28188;SDS011;15471;51.166;4.470;2023-03-11T12:17:46;0.10;;;0.10;;
28188;SDS011;15471;51.166;4.470;2023-03-11T12:20:19;0.10;;;0.10;;
28188;SDS011;15471;51.166;4.470;2023-03-11T12:23:14;0.10;;;0.10;;
28188;SDS011;15471;51.166;4.470;2023-03-11T12:26:06;0.10;;;0.10;;
28188;SDS011;15471;51.166;4.470;2023-03-11T12:28:43;0.10;;;0.10;;
28188;SDS011;15471;51.166;4.470;2023-03-11T12:31:11;0.10;;;0.10;;
28188;SDS011;15471;51.166;4.470;2023-03-11T12:33:47;0.10;;;0.10;;
28188;SDS011;15471;51.166;4.470;2023-03-11T12:36:24;0.10;;;0.10;;
28188;SDS011;15471;51.166;4.470;2023-03-11T12:38:56;0.10;;;0.10;;
28188;SDS011;15471;51.166;4.470;2023-03-11T12:41:28;0.10;;;0.10;;
28188;SDS011;15471;51.166;4.470;2023-03-11T12:44:08;0.10;;;0.10;;
28188;SDS011;15471;51.166;4.470;2023-03-11T12:49:26;0.10;;;0.10;;
28188;SDS011;15471;51.166;4.470;2023-03-11T12:54:36;0.10;;;0.10;;
28188;SDS011;15471;51.166;4.470;2023-03-11T13:03:00;0.10;;;0.10;;
28188;SDS011;15471;51.166;4.470;2023-03-11T13:08:44;0.10;;;0.10;;
28188;SDS011;15471;51.166;4.470;2023-03-11T13:14:18;0.10;;;0.10;;
28188;SDS011;15471;51.166;4.470;2023-03-11T13:16:50;0.10;;;0.10;;
28188;SDS011;15471;51.166;4.470;2023-03-11T13:19:51;0.10;;;0.10;;
28188;SDS011;15471;51.166;4.470;2023-03-11T13:25:27;0.10;;;0.10;;
28188;SDS011;15471;51.166;4.470;2023-03-11T13:27:56;0.10;;;0.10;;
28188;SDS011;15471;51.166;4.470;2023-03-11T13:30:31;0.10;;;0.10;;
28188;SDS011;15471;51.166;4.470;2023-03-11T13:33:47;0.10;;;0.10;;
28188;SDS011;15471;51.166;4.470;2023-03-11T13:39:03;0.10;;;0.10;;
28188;SDS011;15471;51.166;4.470;2023-03-11T13:41:54;0.10;;;0.10;;
28188;SDS011;15471;51.166;4.470;2023-03-11T13:46:58;0.00;;;0.00;;
28188;SDS011;15471;51.166;4.470;2023-03-11T13:49:32;0.00;;;0.00;;
28188;SDS011;15471;51.166;4.470;2023-03-11T13:52:00;0.10;;;0.10;;
28188;SDS011;15471;51.166;4.470;2023-03-11T13:54:33;0.10;;;0.10;;
28188;SDS011;15471;51.166;4.470;2023-03-11T13:57:30;0.10;;;0.10;;
28188;SDS011;15471;51.166;4.470;2023-03-11T14:00:16;0.10;;;0.10;;
28188;SDS011;15471;51.166;4.470;2023-03-11T14:03:01;0.10;;;0.10;;
28188;SDS011;15471;51.166;4.470;2023-03-11T14:05:30;0.10;;;0.10;;
28188;SDS011;15471;51.166;4.470;2023-03-11T14:13:32;0.10;;;0.10;;
28188;SDS011;15471;51.166;4.470;2023-03-11T14:16:18;0.10;;;0.10;;
28188;SDS011;15471;51.166;4.470;2023-03-11T14:21:25;0.10;;;0.10;;
28188;SDS011;15471;51.166;4.470;2023-03-11T14:23:52;0.10;;;0.10;;
28188;SDS011;15471;51.166;4.470;2023-03-11T14:28:54;0.10;;;0.10;;
28188;SDS011;15471;51.166;4.470;2023-03-11T14:31:35;0.10;;;0.10;;
28188;SDS011;15471;51.166;4.470;2023-03-11T14:36:41;0.10;;;0.10;;
28188;SDS011;15471;51.166;4.470;2023-03-11T14:44:33;0.10;;;0.10;;
28188;SDS011;15471;51.166;4.470;2023-03-11T14:47:08;0.10;;;0.10;;
28188;SDS011;15471;51.166;4.470;2023-03-11T14:49:53;0.10;;;0.10;;
28188;SDS011;15471;51.166;4.470;2023-03-11T14:52:21;0.10;;;0.10;;
28188;SDS011;15471;51.166;4.470;2023-03-11T14:55:05;0.10;;;0.10;;
28188;SDS011;15471;51.166;4.470;2023-03-11T15:00:14;0.10;;;0.10;;
28188;SDS011;15471;51.166;4.470;2023-03-11T15:02:58;0.10;;;0.10;;
28188;SDS011;15471;51.166;4.470;2023-03-11T15:05:33;0.10;;;0.10;;
28188;SDS011;15471;51.166;4.470;2023-03-11T15:08:02;0.10;;;0.10;;
28188;SDS011;15471;51.166;4.470;2023-03-11T15:10:31;0.10;;;0.10;;
28188;SDS011;15471;51.166;4.470;2023-03-11T15:13:05;0.10;;;0.10;;
28188;SDS011;15471;51.166;4.470;2023-03-11T15:15:34;0.10;;;0.10;;
28188;SDS011;15471;51.166;4.470;2023-03-11T15:18:01;0.10;;;0.10;;
28188;SDS011;15471;51.166;4.470;2023-03-11T15:20:31;0.10;;;0.10;;
28188;SDS011;15471;51.166;4.470;2023-03-11T15:23:03;0.10;;;0.10;;
28188;SDS011;15471;51.166;4.470;2023-03-11T15:25:34;0.10;;;0.10;;
28188;SDS011;15471;51.166;4.470;2023-03-11T15:28:19;0.10;;;0.10;;
28188;SDS011;15471;51.166;4.470;2023-03-11T15:30:46;0.10;;;0.10;;
28188;SDS011;15471;51.166;4.470;2023-03-11T15:33:19;0.10;;;0.10;;
28188;SDS011;15471;51.166;4.470;2023-03-11T15:35:46;0.10;;;0.10;;
28188;SDS011;15471;51.166;4.470;2023-03-11T15:41:03;0.10;;;0.10;;
28188;SDS011;15471;51.166;4.470;2023-03-11T15:43:30;0.10;;;0.10;;
28188;SDS011;15471;51.166;4.470;2023-03-11T15:46:10;0.10;;;0.10;;
28188;SDS011;15471;51.166;4.470;2023-03-11T15:48:36;0.10;;;0.10;;
28188;SDS011;15471;51.166;4.470;2023-03-11T15:51:02;0.10;;;0.10;;
28188;SDS011;15471;51.166;4.470;2023-03-11T15:53:28;0.10;;;0.10;;
28188;SDS011;15471;51.166;4.470;2023-03-11T15:56:00;0.10;;;0.10;;
28188;SDS011;15471;51.166;4.470;2023-03-11T15:58:34;0.10;;;0.10;;
28188;SDS011;15471;51.166;4.470;2023-03-11T16:01:02;0.10;;;0.10;;
28188;SDS011;15471;51.166;4.470;2023-03-11T16:03:28;0.03;;;0.03;;
28188;SDS011;15471;51.166;4.470;2023-03-11T16:05:53;0.10;;;0.10;;
28188;SDS011;15471;51.166;4.470;2023-03-11T16:08:19;0.10;;;0.10;;
28188;SDS011;15471;51.166;4.470;2023-03-11T16:10:45;0.10;;;0.10;;
28188;SDS011;15471;51.166;4.470;2023-03-11T16:13:11;0.10;;;0.10;;
28188;SDS011;15471;51.166;4.470;2023-03-11T16:15:38;0.10;;;0.10;;
28188;SDS011;15471;51.166;4.470;2023-03-11T16:18:04;0.10;;;0.10;;
28188;SDS011;15471;51.166;4.470;2023-03-11T16:20:37;0.10;;;0.10;;
28188;SDS011;15471;51.166;4.470;2023-03-11T16:23:25;0.10;;;0.10;;
28188;SDS011;15471;51.166;4.470;2023-03-11T16:25:56;0.10;;;0.10;;
28188;SDS011;15471;51.166;4.470;2023-03-11T16:28:23;0.10;;;0.10;;
28188;SDS011;15471;51.166;4.470;2023-03-11T16:30:50;0.10;;;0.10;;
28188;SDS011;15471;51.166;4.470;2023-03-11T16:33:16;0.10;;;0.10;;
28188;SDS011;15471;51.166;4.470;2023-03-11T16:35:42;0.10;;;0.10;;
28188;SDS011;15471;51.166;4.470;2023-03-11T16:38:08;0.10;;;0.10;;
28188;SDS011;15471;51.166;4.470;2023-03-11T16:40:34;0.10;;;0.10;;
28188;SDS011;15471;51.166;4.470;2023-03-11T16:43:01;0.10;;;0.10;;
28188;SDS011;15471;51.166;4.470;2023-03-11T16:45:29;0.10;;;0.10;;
28188;SDS011;15471;51.166;4.470;2023-03-11T16:47:55;0.10;;;0.10;;
28188;SDS011;15471;51.166;4.470;2023-03-11T16:50:21;0.10;;;0.10;;
28188;SDS011;15471;51.166;4.470;2023-03-11T16:52:48;0.10;;;0.10;;
28188;SDS011;15471;51.166;4.470;2023-03-11T16:55:15;0.10;;;0.10;;